Time;durP1;ratioP1;P1;durP2;ratioP2;P2;SDS_P1;SDS_P2;PMS_P1;PMS_P2;Temp;Humidity;BMP_temperature;BMP_pressure;BME280_temperature;BME280_humidity;BME280_pressure;Samples;Min_cycle;Max_cycle;Signal;HPM_P1;HPM_P2
2023/08/29 06:25:04;;;;;;;;;2.33;2.33;;;;;21.86;56.39;101031.97;5114296;27;45622;-70
2023/08/29 06:27:30;;;;;;;;;2.33;2.33;;;;;22.03;56.09;101037.59;5104015;27;45499;-71
2023/08/29 06:29:55;;;;;;;;;2.00;2.00;;;;;22.22;55.82;101034.75;5096588;27;45517;-69
2023/08/29 06:32:21;;;;;;;;;1.33;1.33;;;;;22.45;55.61;101038.88;5093278;27;45539;-69
2023/08/29 06:34:46;;;;;;;;;2.67;2.67;;;;;22.66;55.50;101044.00;5094826;27;46382;-70
2023/08/29 06:37:11;;;;;;;;;2.00;2.00;;;;;22.91;54.99;101041.50;5103301;27;55625;-70
2023/08/29 06:39:36;;;;;;;;;2.33;2.33;;;;;23.12;54.59;101043.84;5106256;27;45380;-71
2023/08/29 06:42:02;;;;;;;;;2.00;2.00;;;;;23.35;54.14;101046.06;5106885;27;45421;-72
2023/08/29 06:44:27;;;;;;;;;3.00;1.33;;;;;23.57;53.57;101041.09;5105148;27;45779;-72
2023/08/29 06:46:52;;;;;;;;;1.00;1.00;;;;;23.75;53.44;101041.00;5106091;27;45613;-71
2023/08/29 06:49:18;;;;;;;;;3.00;2.00;;;;;23.97;53.11;101041.44;5099422;27;54424;-72
2023/08/29 06:51:43;;;;;;;;;3.00;1.67;;;;;24.15;53.02;101037.78;5099772;27;45575;-70
2023/08/29 06:54:08;;;;;;;;;1.67;1.67;;;;;24.31;52.36;101034.25;5094577;27;45939;-71
2023/08/29 06:56:34;;;;;;;;;2.00;2.00;;;;;24.42;52.22;101024.94;5103481;27;45710;-71
2023/08/29 06:58:59;;;;;;;;;2.00;2.00;;;;;24.62;52.35;101039.03;5100596;27;47307;-71
2023/08/29 07:01:24;;;;;;;;;3.00;1.67;;;;;24.78;51.89;101042.78;5100303;27;45434;-71
2023/08/29 07:03:49;;;;;;;;;3.00;3.00;;;;;24.86;51.92;101037.38;5105001;27;46260;-72
2023/08/29 07:06:15;;;;;;;;;1.00;1.00;;;;;25.00;51.08;101042.13;5109604;27;45437;-68
2023/08/29 07:08:40;;;;;;;;;1.00;1.00;;;;;25.13;50.36;101049.75;5108331;27;45411;-69
2023/08/29 07:11:06;;;;;;;;;2.33;2.33;;;;;25.23;50.31;101052.28;5110302;27;45689;-69
2023/08/29 07:13:32;;;;;;;;;2.00;2.00;;;;;25.31;50.24;101045.13;5101441;27;45995;-71
2023/08/29 07:15:57;;;;;;;;;2.00;2.00;;;;;25.36;49.86;101049.03;5103063;27;45334;-73
2023/08/29 07:18:22;;;;;;;;;2.00;2.00;;;;;25.46;49.67;101050.69;5101695;27;45561;-73
2023/08/29 07:20:49;;;;;;;;;0.67;0.67;;;;;25.54;49.50;101053.38;5105573;27;45815;-73
2023/08/29 07:23:15;;;;;;;;;0.00;0.00;;;;;25.61;49.65;101048.97;5100478;27;46208;-73
2023/08/29 07:25:43;;;;;;;;;1.67;1.67;;;;;25.69;49.45;101056.25;5105471;27;45418;-73
2023/08/29 08:41:19;;;;;;;;;3.67;3.00;;;;;26.48;46.61;101045.50;5012134;28;46972;-75
2023/08/29 08:43:44;;;;;;;;;2.33;2.00;;;;;26.47;46.96;101043.78;5030608;28;45659;-75
2023/08/29 08:46:14;;;;;;;;;4.33;3.00;;;;;26.49;46.75;101045.31;5034084;28;45659;-74
2023/08/29 08:48:40;;;;;;;;;2.00;1.00;;;;;26.48;46.74;101040.88;5031506;28;45714;-72
2023/08/29 08:51:06;;;;;;;;;1.33;1.33;;;;;26.48;46.42;101045.50;5034901;28;46045;-73
2023/08/29 08:53:33;;;;;;;;;4.67;3.33;;;;;26.49;47.07;101041.75;5032174;28;45414;-72
2023/08/29 08:55:59;;;;;;;;;3.67;2.33;;;;;26.49;47.21;101042.59;5033540;28;45551;-73
2023/08/29 08:58:25;;;;;;;;;2.00;2.00;;;;;26.49;46.85;101039.88;5034109;28;45491;-73
2023/08/29 09:00:51;;;;;;;;;2.67;2.33;;;;;26.56;47.36;101049.00;5028033;28;45441;-73
2023/08/29 09:03:17;;;;;;;;;4.00;3.00;;;;;26.60;47.33;101041.31;5036678;28;45838;-73
2023/08/29 09:05:42;;;;;;;;;3.00;2.67;;;;;26.63;47.23;101042.81;5031379;28;45503;-73
2023/08/29 09:08:08;;;;;;;;;2.00;2.00;;;;;26.67;46.86;101041.41;5025673;28;45404;-74
2023/08/29 09:10:37;;;;;;;;;4.00;3.33;;;;;26.68;47.42;101030.34;5032925;28;46066;-74
2023/08/29 09:13:02;;;;;;;;;1.00;1.00;;;;;26.70;46.90;101031.00;5033231;28;45843;-74
2023/08/29 09:15:28;;;;;;;;;3.00;3.00;;;;;26.73;47.54;101034.41;5033373;28;45635;-74
2023/08/29 09:17:54;;;;;;;;;2.33;2.33;;;;;26.76;47.81;101036.78;5024547;28;45424;-74
2023/08/29 09:20:21;;;;;;;;;2.00;2.00;;;;;26.77;47.45;101033.84;5031921;28;45956;-75
2023/08/29 09:22:47;;;;;;;;;4.67;3.00;;;;;26.79;47.23;101030.94;5031244;28;45768;-74
2023/08/29 09:25:14;;;;;;;;;2.33;2.00;;;;;26.82;47.35;101030.59;5018386;28;46012;-73
2023/08/29 09:27:43;;;;;;;;;1.00;1.00;;;;;26.84;47.73;101020.34;5026969;28;45418;-74
2023/08/29 09:30:11;;;;;;;;;3.00;2.33;;;;;26.85;47.99;101030.19;5033588;28;46556;-73
2023/08/29 09:32:40;;;;;;;;;3.00;1.67;;;;;26.88;47.86;101031.69;5034424;28;45610;-73
2023/08/29 09:35:06;;;;;;;;;1.67;1.67;;;;;26.91;47.28;101020.44;5033019;28;45719;-73
2023/08/29 09:37:32;;;;;;;;;2.67;2.00;;;;;26.92;47.43;101022.13;5033232;28;45460;-74
2023/08/29 09:39:58;;;;;;;;;1.00;1.00;;;;;26.95;47.19;101022.66;5014908;28;48661;-72
2023/08/29 09:42:24;;;;;;;;;2.00;2.00;;;;;26.98;47.57;101026.03;5032372;28;45511;-73
2023/08/29 09:44:50;;;;;;;;;2.33;2.00;;;;;26.99;47.59;101022.28;5030731;28;45380;-75
2023/08/29 09:47:25;;;;;;;;;2.33;2.33;;;;;27.04;47.59;101019.84;5032074;28;45551;-73
2023/08/29 09:49:50;;;;;;;;;1.67;1.33;;;;;27.04;47.58;101020.69;5032358;28;45471;-74
2023/08/29 09:52:17;;;;;;;;;2.67;1.67;;;;;27.04;47.52;101019.84;5032326;28;45648;-75
2023/08/29 09:54:52;;;;;;;;;0.00;0.00;;;;;27.08;47.09;101018.44;5034293;28;45564;-73
2023/08/29 09:57:19;;;;;;;;;2.00;2.00;;;;;27.09;47.11;101020.97;5031534;28;45385;-72
2023/08/29 09:59:46;;;;;;;;;2.00;2.00;;;;;27.12;47.40;101021.63;5031432;28;45373;-72
2023/08/29 10:02:13;;;;;;;;;2.00;2.00;;;;;27.16;47.17;101020.22;5026240;28;45344;-72
2023/08/29 10:04:44;;;;;;;;;1.00;1.00;;;;;27.17;47.72;101013.75;5033354;28;45447;-72
2023/08/29 10:07:14;;;;;;;;;2.33;2.33;;;;;27.18;47.38;101010.00;5031768;28;45651;-72
2023/08/29 10:09:41;;;;;;;;;0.67;0.67;;;;;27.22;47.29;101008.59;5049105;28;46355;-72
2023/08/29 10:12:08;;;;;;;;;2.00;2.00;;;;;27.25;47.60;101010.94;5030460;28;45733;-72
2023/08/29 10:14:34;;;;;;;;;1.00;1.00;;;;;27.26;47.04;100996.28;5032870;28;45384;-72
2023/08/29 10:17:01;;;;;;;;;1.33;1.33;;;;;27.29;46.85;100998.63;5032013;28;45464;-72
2023/08/29 10:19:29;;;;;;;;;1.00;1.00;;;;;27.31;47.36;101002.03;5024346;28;47121;-72
2023/08/29 10:21:55;;;;;;;;;1.67;1.00;;;;;27.34;47.43;100998.09;5031916;28;45456;-72
2023/08/29 10:24:22;;;;;;;;;1.00;1.00;;;;;27.35;46.69;101000.59;5028328;28;45777;-73
2023/08/29 10:26:49;;;;;;;;;2.33;1.00;;;;;27.36;47.01;101002.31;5031569;28;45782;-73
2023/08/29 10:29:16;;;;;;;;;1.33;1.33;;;;;27.38;46.80;100993.91;5032180;28;45715;-73
2023/08/29 10:31:45;;;;;;;;;2.00;2.00;;;;;27.39;45.15;100987.47;5030619;28;45631;-73
2023/08/29 10:34:11;;;;;;;;;2.00;2.00;;;;;27.34;44.41;100981.72;5035246;28;45514;-74
2023/08/29 10:36:38;;;;;;;;;2.00;2.00;;;;;27.31;44.77;100982.09;5030291;28;45740;-73
2023/08/29 10:39:04;;;;;;;;;2.00;2.00;;;;;27.25;43.90;100970.06;5030352;28;45396;-74
2023/08/29 10:41:46;;;;;;;;;3.00;1.33;;;;;27.17;43.43;100972.88;5032115;28;45475;-73
2023/08/29 10:44:39;;;;;;;;;3.00;3.00;;;;;27.05;42.78;100975.25;5031715;28;45408;-72
2023/08/29 10:47:26;;;;;;;;;4.67;3.33;;;;;26.99;43.11;100978.69;5021577;28;45723;-73
2023/08/29 10:49:59;;;;;;;;;4.33;4.33;;;;;26.89;42.32;100970.78;5028660;28;46495;-72
2023/08/29 10:52:41;;;;;;;;;3.33;3.33;;;;;26.81;42.12;100969.81;5031878;28;45616;-72
2023/08/29 10:55:27;;;;;;;;;3.00;3.00;;;;;26.73;42.24;100971.78;5028742;28;45482;-72
2023/08/29 10:57:53;;;;;;;;;3.00;3.00;;;;;26.63;41.53;100959.28;5031429;28;45737;-73
2023/08/29 11:00:40;;;;;;;;;4.00;4.00;;;;;26.54;41.84;100963.09;5032179;28;46023;-73
2023/08/29 11:03:06;;;;;;;;;2.00;2.00;;;;;26.46;42.14;100969.47;5026261;28;45469;-72
2023/08/29 11:05:31;;;;;;;;;4.00;3.00;;;;;26.43;42.08;100973.41;5031110;28;45412;-72
2023/08/29 11:08:19;;;;;;;;;5.00;3.00;;;;;26.43;41.15;100962.50;5032307;28;45600;-72
2023/08/29 11:11:08;;;;;;;;;3.00;3.00;;;;;26.42;41.44;100963.56;5034003;28;46177;-72
2023/08/29 11:13:33;;;;;;;;;3.00;2.00;;;;;26.39;40.85;100963.06;5023979;28;45479;-75
2023/08/29 11:15:58;;;;;;;;;3.33;3.33;;;;;26.39;40.65;100957.59;5031605;28;45459;-73
2023/08/29 11:18:24;;;;;;;;;3.33;3.33;;;;;26.39;41.13;100963.06;5032810;28;45542;-72
2023/08/29 11:20:50;;;;;;;;;2.33;2.33;;;;;26.35;41.84;100956.31;5033738;28;46147;-72
2023/08/29 11:23:16;;;;;;;;;1.67;1.67;;;;;26.38;41.38;100956.78;5035225;28;45655;-72
2023/08/29 11:25:42;;;;;;;;;5.33;3.00;;;;;26.40;41.62;100948.44;5034919;28;45513;-72
2023/08/29 11:28:07;;;;;;;;;3.00;3.00;;;;;26.42;41.80;100949.94;5034274;28;45471;-72
2023/08/29 11:30:33;;;;;;;;;5.00;5.00;;;;;26.44;42.31;100955.19;5033854;28;45438;-73
2023/08/29 11:32:58;;;;;;;;;2.33;1.00;;;;;26.45;42.21;100956.91;5020275;28;45448;-72
2023/08/29 11:35:24;;;;;;;;;3.00;3.00;;;;;26.44;42.63;100961.47;5031727;28;45572;-73
2023/08/29 11:37:49;;;;;;;;;4.00;4.00;;;;;26.46;41.62;100953.13;5029011;28;45348;-73
2023/08/29 11:40:19;;;;;;;;;3.00;3.00;;;;;26.43;41.95;100945.34;5024324;28;45500;-72
2023/08/29 11:42:45;;;;;;;;;3.67;2.33;;;;;26.44;42.03;100950.59;5019556;28;45557;-72
2023/08/29 11:45:10;;;;;;;;;2.00;2.00;;;;;26.42;41.60;100940.94;5023993;28;45441;-72
2023/08/29 11:47:36;;;;;;;;;5.33;3.00;;;;;26.42;41.94;100946.38;5020345;28;45679;-73
2023/08/29 11:50:04;;;;;;;;;4.00;4.00;;;;;26.41;41.90;100950.13;5024493;28;45927;-72
2023/08/29 11:52:30;;;;;;;;;2.00;2.00;;;;;26.39;42.02;100944.00;5035052;28;45571;-72
2023/08/29 11:54:56;;;;;;;;;2.00;2.00;;;;;26.36;41.35;100950.66;5027287;28;45405;-72
2023/08/29 11:57:23;;;;;;;;;2.00;2.00;;;;;26.38;42.41;100953.19;5026292;28;45501;-73
2023/08/29 11:59:51;;;;;;;;;2.67;2.67;;;;;26.35;42.50;100940.81;5027194;28;45993;-73
2023/08/29 12:02:18;;;;;;;;;3.00;3.00;;;;;26.27;42.20;100957.19;5022341;28;45585;-72
2023/08/29 12:04:45;;;;;;;;;3.67;2.00;;;;;26.17;42.11;100946.53;5025737;28;45373;-73
2023/08/29 12:07:15;;;;;;;;;2.00;2.00;;;;;26.09;41.68;100947.44;5017844;28;45427;-72
2023/08/29 12:09:42;;;;;;;;;3.67;3.00;;;;;25.97;41.15;100951.59;5031021;28;45801;-72
2023/08/29 12:12:09;;;;;;;;;4.00;3.00;;;;;25.84;41.59;100950.34;5019548;28;45582;-72
2023/08/29 12:14:50;;;;;;;;;2.00;1.00;;;;;25.75;41.41;100945.97;5024311;28;45460;-72
2023/08/29 12:17:16;;;;;;;;;4.33;3.33;;;;;25.74;41.98;100946.97;5016421;28;45844;-73
2023/08/29 12:19:42;;;;;;;;;4.33;4.00;;;;;25.71;41.95;100952.78;5022183;28;46327;-73
2023/08/29 12:22:07;;;;;;;;;4.67;4.67;;;;;25.64;41.11;100950.78;5028388;28;45534;-73
2023/08/29 12:24:33;;;;;;;;;4.00;4.00;;;;;25.61;41.71;100944.84;5031092;28;45690;-71
2023/08/29 12:26:59;;;;;;;;;2.67;2.33;;;;;25.58;41.53;100947.94;5034471;28;45574;-74
2023/08/29 12:29:24;;;;;;;;;2.67;2.00;;;;;25.63;42.24;100949.06;5032067;28;46175;-74
2023/08/29 12:31:50;;;;;;;;;2.00;2.00;;;;;25.69;42.87;100942.09;5032562;28;45367;-74
2023/08/29 12:34:15;;;;;;;;;2.00;2.00;;;;;25.72;43.25;100935.44;5029687;28;45483;-74
2023/08/29 12:36:40;;;;;;;;;2.00;2.00;;;;;25.83;43.61;100943.19;5033556;28;45462;-75
2023/08/29 12:39:08;;;;;;;;;2.00;2.00;;;;;25.90;43.20;100944.16;5033002;28;49644;-73
2023/08/29 12:41:34;;;;;;;;;4.00;2.00;;;;;25.97;43.95;100936.16;5026525;28;45649;-74
2023/08/29 12:43:59;;;;;;;;;2.00;2.00;;;;;26.04;43.49;100931.66;5021631;28;45853;-75
2023/08/29 12:46:25;;;;;;;;;3.00;3.00;;;;;26.10;44.17;100929.25;5017075;28;45716;-73
2023/08/29 12:48:50;;;;;;;;;2.00;2.00;;;;;26.17;44.76;100925.59;5030030;28;45530;-74
2023/08/29 12:51:16;;;;;;;;;2.67;2.67;;;;;26.25;44.30;100929.34;5030889;28;45814;-74
2023/08/29 12:53:43;;;;;;;;;4.67;3.00;;;;;26.31;44.65;100924.00;5037029;28;45782;-73
2023/08/29 12:56:09;;;;;;;;;3.00;3.00;;;;;26.35;43.29;100920.94;5016362;28;45428;-74
2023/08/29 12:58:34;;;;;;;;;4.00;3.00;;;;;26.38;43.94;100921.41;5024537;28;46454;-74
2023/08/29 13:01:00;;;;;;;;;3.00;2.67;;;;;26.43;44.33;100924.41;5021130;28;45974;-76
2023/08/29 13:03:25;;;;;;;;;3.33;3.33;;;;;26.46;42.88;100920.47;5029891;28;45936;-76
2023/08/29 13:05:51;;;;;;;;;3.67;3.33;;;;;26.49;43.45;100922.00;5028068;28;50957;-82
2023/08/29 13:08:19;;;;;;;;;2.00;2.00;;;;;26.50;43.38;100915.50;5004923;28;48363;-78
2023/08/29 13:10:45;;;;;;;;;2.00;2.00;;;;;26.52;43.34;100917.00;5027037;28;45404;-78
2023/08/29 13:13:11;;;;;;;;;5.00;3.33;;;;;26.55;43.90;100910.34;5026752;28;45428;-77
2023/08/29 13:15:37;;;;;;;;;2.33;2.33;;;;;26.57;44.20;100909.13;5031428;28;45487;-78
2023/08/29 13:18:02;;;;;;;;;2.00;2.00;;;;;26.61;44.09;100903.34;5025375;28;45924;-79
2023/08/29 13:20:28;;;;;;;;;3.00;3.00;;;;;26.65;44.47;100905.47;5028294;28;45442;-83
2023/08/29 13:22:53;;;;;;;;;2.00;2.00;;;;;26.69;44.52;100908.69;5027611;28;45341;-83
2023/08/29 13:25:20;;;;;;;;;4.00;2.67;;;;;26.73;44.59;100901.00;5025503;28;45699;-86
2023/08/29 13:27:48;;;;;;;;;2.33;2.33;;;;;26.75;44.23;100901.66;5022287;28;45632;-79
2023/08/29 13:30:15;;;;;;;;;3.00;3.00;;;;;26.77;44.35;100900.44;5025634;28;45503;-77
2023/08/29 13:32:41;;;;;;;;;2.67;2.67;;;;;26.82;44.55;100905.31;5021169;28;45598;-79
2023/08/29 13:35:07;;;;;;;;;3.33;2.67;;;;;26.84;45.09;100904.09;5018312;28;45474;-81
2023/08/29 13:37:32;;;;;;;;;1.67;1.67;;;;;26.88;44.64;100901.00;5033256;28;46071;-78
2023/08/29 13:39:58;;;;;;;;;4.33;2.33;;;;;26.91;44.74;100893.31;5026902;28;45639;-78
2023/08/29 13:42:23;;;;;;;;;3.00;2.00;;;;;26.93;45.16;100896.72;5028426;28;45352;-76
2023/08/29 13:44:54;;;;;;;;;3.33;3.33;;;;;26.91;44.62;100893.31;5028986;28;45409;-80
2023/08/29 13:47:20;;;;;;;;;2.00;2.00;;;;;26.96;45.44;100890.91;5024130;28;46148;-78
2023/08/29 13:49:46;;;;;;;;;4.67;2.67;;;;;26.99;44.83;100900.56;5018255;28;45546;-80
2023/08/29 13:52:11;;;;;;;;;2.00;2.00;;;;;26.99;45.54;100884.22;5019227;28;45755;-81
2023/08/29 13:54:36;;;;;;;;;3.00;3.00;;;;;27.02;44.71;100883.84;5024250;28;46336;-80
2023/08/29 13:57:02;;;;;;;;;4.00;3.33;;;;;27.04;44.93;100886.38;5013641;28;51011;-80
2023/08/29 13:59:27;;;;;;;;;2.67;2.67;;;;;27.04;45.02;100879.06;5031610;28;45460;-81
2023/08/29 14:01:52;;;;;;;;;3.67;2.67;;;;;27.03;45.29;100880.09;5013454;28;45823;-79
2023/08/29 14:04:18;;;;;;;;;3.67;3.67;;;;;27.06;42.99;100879.69;5028686;28;45645;-78
2023/08/29 14:06:43;;;;;;;;;2.67;2.67;;;;;27.04;44.48;100881.78;5020987;28;57443;-81
2023/08/29 14:09:08;;;;;;;;;4.00;2.00;;;;;27.06;43.97;100882.44;5029713;28;45396;-79
2023/08/29 14:11:34;;;;;;;;;2.00;2.00;;;;;27.06;44.19;100885.16;5021679;28;45292;-78
2023/08/29 14:13:59;;;;;;;;;3.00;3.00;;;;;27.06;44.93;100882.44;5030251;28;45571;-79
2023/08/29 14:16:24;;;;;;;;;3.33;3.00;;;;;27.06;45.01;100881.59;5022846;28;48224;-79
2023/08/29 14:18:50;;;;;;;;;3.00;3.00;;;;;27.08;44.70;100896.72;5027106;28;52817;-77
2023/08/29 14:21:15;;;;;;;;;4.00;3.00;;;;;27.04;44.30;100881.78;5029887;28;45994;-78
2023/08/29 14:23:41;;;;;;;;;3.00;1.33;;;;;27.09;45.08;100883.91;5029341;28;45529;-80
2023/08/29 14:26:10;;;;;;;;;3.00;2.00;;;;;27.13;45.21;100889.84;5028693;28;45388;-79
2023/08/29 14:28:35;;;;;;;;;2.33;2.33;;;;;27.13;45.21;100887.13;5028299;28;45627;-76
2023/08/29 14:31:03;;;;;;;;;3.00;2.00;;;;;27.16;44.67;100889.47;5030718;28;45602;-77
2023/08/29 14:33:28;;;;;;;;;1.67;1.67;;;;;27.18;44.73;100890.13;5026177;28;45468;-74
2023/08/29 14:35:55;;;;;;;;;3.00;3.00;;;;;27.16;41.79;100893.03;5032194;28;46289;-74
2023/08/29 14:38:20;;;;;;;;;3.00;3.00;;;;;27.11;41.08;100890.03;5030604;28;46219;-74
2023/08/29 14:40:45;;;;;;;;;3.33;3.33;;;;;27.09;40.83;100892.09;5023644;28;45342;-75
2023/08/29 14:43:10;;;;;;;;;1.00;1.00;;;;;27.03;41.68;100891.00;5029401;28;57294;-75
2023/08/29 14:45:39;;;;;;;;;3.00;3.00;;;;;27.02;40.90;100899.34;5028512;28;46458;-76
2023/08/29 14:48:05;;;;;;;;;2.67;2.67;;;;;26.96;41.30;100904.53;5028668;28;45566;-76
2023/08/29 14:50:30;;;;;;;;;2.33;2.33;;;;;26.94;41.50;100905.75;5028569;28;45437;-76
2023/08/29 14:52:55;;;;;;;;;3.00;3.00;;;;;26.91;40.68;100904.22;5030451;28;45455;-74
2023/08/29 14:55:23;;;;;;;;;2.33;2.00;;;;;26.85;40.52;100896.75;5025349;28;57908;-76
2023/08/29 14:57:48;;;;;;;;;2.67;2.00;;;;;26.84;40.92;100895.94;5030393;28;45477;-76
2023/08/29 15:00:15;;;;;;;;;3.00;2.00;;;;;26.81;41.44;100893.59;5023630;28;56115;-77
2023/08/29 15:02:41;;;;;;;;;4.33;2.00;;;;;26.79;41.19;100892.94;5029740;28;45420;-76
2023/08/29 15:05:08;;;;;;;;;2.67;2.00;;;;;26.78;41.01;100884.94;5026780;28;47254;-76
2023/08/29 15:07:34;;;;;;;;;4.33;4.00;;;;;26.72;42.42;100886.53;5033182;28;45563;-76
2023/08/29 15:09:59;;;;;;;;;7.33;7.00;;;;;26.70;42.89;100896.78;5028147;28;45930;-75
2023/08/29 15:12:25;;;;;;;;;6.67;5.00;;;;;26.65;43.36;100889.16;5025528;28;46020;-75
2023/08/29 15:14:51;;;;;;;;;16.33;10.00;;;;;26.62;42.79;100886.81;5020791;28;45683;-75
2023/08/29 15:17:19;;;;;;;;;16.33;10.00;;;;;26.57;42.65;100881.91;5037072;28;45684;-75
2023/08/29 15:19:44;;;;;;;;;8.67;5.00;;;;;26.58;41.47;100888.22;5025127;28;45594;-77
2023/08/29 15:22:10;;;;;;;;;12.67;7.67;;;;;26.60;42.89;100882.59;5026997;28;45658;-79
2023/08/29 15:24:35;;;;;;;;;7.00;6.33;;;;;26.61;42.46;100881.56;5033464;28;45723;-78
2023/08/29 15:27:00;;;;;;;;;7.33;6.67;;;;;26.63;42.67;100877.63;5030298;28;45492;-78
2023/08/29 15:29:26;;;;;;;;;8.00;7.00;;;;;26.66;42.79;100868.22;5027619;28;45605;-77
2023/08/29 15:31:51;;;;;;;;;9.00;6.33;;;;;26.70;42.59;100870.38;5034105;28;47856;-77
2023/08/29 15:34:16;;;;;;;;;12.00;8.00;;;;;26.74;42.45;100864.56;5034794;28;56679;-78
2023/08/29 15:36:42;;;;;;;;;8.00;4.00;;;;;26.79;43.33;100864.84;5032106;28;45602;-81
2023/08/29 15:39:07;;;;;;;;;7.33;4.00;;;;;26.82;43.38;100875.38;5034283;28;57081;-78
2023/08/29 15:41:33;;;;;;;;;6.67;4.33;;;;;26.85;43.02;100877.72;5032768;28;45608;-77
2023/08/29 15:43:58;;;;;;;;;7.00;6.33;;;;;26.89;43.37;100868.13;5033963;28;46076;-78
2023/08/29 15:46:23;;;;;;;;;6.00;4.00;;;;;26.92;43.54;100875.94;5025603;28;52370;-80
2023/08/29 15:48:49;;;;;;;;;10.67;6.00;;;;;26.93;43.36;100866.75;5024395;28;45389;-78
2023/08/29 15:51:15;;;;;;;;;6.33;6.33;;;;;26.99;43.38;100877.94;5032935;28;48222;-78
2023/08/29 15:53:41;;;;;;;;;7.67;4.67;;;;;26.95;43.49;100875.59;5034206;28;46008;-79
2023/08/29 15:56:07;;;;;;;;;6.00;3.67;;;;;26.96;43.37;100869.13;5032073;28;45609;-79
2023/08/29 15:58:33;;;;;;;;;10.67;7.00;;;;;27.05;43.04;100874.47;5033917;28;45610;-79
2023/08/29 16:01:06;;;;;;;;;4.33;4.33;;;;;27.09;42.81;100873.88;5030796;28;45519;-82
2023/08/29 16:03:31;;;;;;;;;3.33;3.33;;;;;27.13;43.69;100870.78;5029605;28;46951;-86
2023/08/29 16:05:56;;;;;;;;;5.00;3.67;;;;;27.15;43.09;100866.84;5032019;28;45353;-86
2023/08/29 16:08:22;;;;;;;;;5.33;5.33;;;;;27.18;43.08;100862.88;5027921;28;45595;-83
2023/08/29 16:10:47;;;;;;;;;8.33;5.00;;;;;27.18;43.15;100869.16;5031996;28;53571;-84
2023/08/29 16:13:12;;;;;;;;;5.33;3.00;;;;;27.21;42.98;100865.22;5020494;28;46094;-83
2023/08/29 16:15:38;;;;;;;;;6.00;4.00;;;;;27.19;42.92;100868.16;5029841;28;45522;-83
2023/08/29 16:18:03;;;;;;;;;9.00;5.67;;;;;27.15;43.51;100852.38;5034143;28;47092;-86
2023/08/29 16:20:29;;;;;;;;;5.67;4.33;;;;;27.24;42.89;100875.75;5035791;28;45751;-83
2023/08/29 16:22:54;;;;;;;;;7.33;5.00;;;;;27.25;43.49;100863.81;5034515;28;45622;-83
2023/08/29 16:25:19;;;;;;;;;6.33;3.33;;;;;27.26;43.41;100870.09;5034162;28;45458;-79
2023/08/29 16:27:45;;;;;;;;;4.33;3.33;;;;;27.21;41.38;100857.91;5032445;28;49240;-80
2023/08/29 16:30:11;;;;;;;;;4.00;3.00;;;;;27.21;40.39;100866.06;5033614;28;45556;-81
2023/08/29 16:32:37;;;;;;;;;8.67;4.00;;;;;27.17;39.53;100861.19;5034077;28;45496;-79
2023/08/29 16:35:03;;;;;;;;;5.00;3.67;;;;;27.11;39.76;100854.63;5034520;28;45485;-83
2023/08/29 16:37:29;;;;;;;;;3.00;3.00;;;;;27.08;39.43;100855.00;5028025;28;45536;-79
2023/08/29 16:39:54;;;;;;;;;3.67;3.67;;;;;27.05;39.30;100861.69;5020669;28;45441;-76
2023/08/29 16:42:19;;;;;;;;;2.67;2.33;;;;;27.00;38.74;100861.41;5031449;28;46917;-76
2023/08/29 16:44:45;;;;;;;;;2.33;2.33;;;;;26.96;39.17;100854.63;5024031;28;45667;-76
2023/08/29 16:47:10;;;;;;;;;3.67;3.00;;;;;26.93;39.94;100857.72;5030778;28;45857;-77
2023/08/29 16:49:36;;;;;;;;;3.00;3.00;;;;;26.90;39.86;100858.94;5021558;28;46155;-78
2023/08/29 16:52:05;;;;;;;;;2.67;2.33;;;;;26.88;39.33;100862.88;5014088;28;48996;-78
2023/08/29 16:54:30;;;;;;;;;4.00;4.00;;;;;26.84;39.43;100860.53;5027361;28;45454;-77
2023/08/29 16:56:56;;;;;;;;;4.00;2.00;;;;;26.80;39.54;100856.50;5027842;28;45543;-77
2023/08/29 16:59:21;;;;;;;;;5.00;3.33;;;;;26.78;40.16;100853.13;5030914;28;45364;-76
2023/08/29 17:01:46;;;;;;;;;4.33;4.33;;;;;26.78;40.47;100855.00;5032568;28;45313;-74
2023/08/29 17:04:11;;;;;;;;;3.00;3.00;;;;;26.76;40.06;100855.19;5035460;28;52353;-78
2023/08/29 17:06:37;;;;;;;;;8.67;3.00;;;;;26.78;39.93;100860.44;5020979;28;52613;-84
2023/08/29 17:09:03;;;;;;;;;3.00;3.00;;;;;26.80;40.08;100861.09;5030278;28;45692;-84
2023/08/29 17:11:28;;;;;;;;;5.00;5.00;;;;;26.80;41.05;100861.94;5026467;28;47283;-85
2023/08/29 17:13:54;;;;;;;;;6.00;6.00;;;;;26.85;41.10;100847.75;5016959;28;45762;-76
2023/08/29 17:16:19;;;;;;;;;7.00;7.00;;;;;26.86;40.94;100854.91;5026375;28;45770;-78
2023/08/29 17:18:45;;;;;;;;;10.33;6.00;;;;;26.84;41.44;100863.25;5031289;28;45817;-78
2023/08/29 17:21:11;;;;;;;;;5.67;5.67;;;;;26.84;40.80;100860.53;5028584;28;45767;-78
2023/08/29 17:23:36;;;;;;;;;4.67;4.00;;;;;26.83;40.88;100855.28;5030460;28;45874;-78
2023/08/29 17:26:02;;;;;;;;;5.00;5.00;;;;;26.80;41.15;100851.06;5030339;28;56374;-78
2023/08/29 17:28:28;;;;;;;;;6.00;5.00;;;;;26.79;41.82;100851.22;5028340;28;45850;-78
2023/08/29 17:30:53;;;;;;;;;5.33;3.67;;;;;26.79;41.13;100859.41;5030161;28;45471;-78
2023/08/29 17:33:19;;;;;;;;;5.33;3.33;;;;;26.77;42.01;100851.41;5030335;28;45871;-78
2023/08/29 17:35:46;;;;;;;;;5.00;3.67;;;;;26.75;42.07;100853.50;5032661;28;45484;-79
